createdAt,value
2017-11-19T00:00:00.878Z,4.60
2017-11-19T00:02:29.057Z,4.60
2017-11-19T00:04:57.178Z,4.60
2017-11-19T00:07:25.333Z,4.60
2017-11-19T00:09:54.222Z,4.50
2017-11-19T00:12:22.384Z,4.50
2017-11-19T00:14:51.279Z,4.40
2017-11-19T00:17:19.429Z,4.40
2017-11-19T00:19:47.542Z,4.40
2017-11-19T00:22:15.702Z,4.40
2017-11-19T00:24:43.826Z,4.40
2017-11-19T00:27:11.970Z,4.40
2017-11-19T00:29:40.091Z,4.40
2017-11-19T00:32:08.233Z,4.40
2017-11-19T00:34:36.350Z,4.40
2017-11-19T00:37:04.502Z,4.40
2017-11-19T00:39:32.622Z,4.50
2017-11-19T00:42:00.766Z,4.50
2017-11-19T00:44:28.887Z,4.50
2017-11-19T00:46:57.056Z,4.50
2017-11-19T00:49:25.180Z,4.50
2017-11-19T00:51:53.300Z,4.50
2017-11-19T00:54:21.447Z,4.50
2017-11-19T00:56:50.327Z,4.50
2017-11-19T00:59:18.484Z,4.50
2017-11-19T01:01:46.610Z,4.50
2017-11-19T01:04:14.759Z,4.50
2017-11-19T01:06:42.873Z,4.50
2017-11-19T01:09:11.028Z,4.50
2017-11-19T01:11:39.141Z,4.50
2017-11-19T01:14:07.285Z,4.50
2017-11-19T01:16:35.419Z,4.50
2017-11-19T01:19:03.571Z,4.50
2017-11-19T01:21:31.694Z,4.50
2017-11-19T01:23:59.844Z,4.50
2017-11-19T01:26:28.740Z,4.50
2017-11-19T01:28:56.895Z,4.50
2017-11-19T01:31:25.790Z,4.50
2017-11-19T01:33:53.936Z,4.50
2017-11-19T01:36:22.051Z,4.50
2017-11-19T01:38:50.970Z,4.50
2017-11-19T01:41:19.089Z,4.50
2017-11-19T01:43:47.229Z,4.40
2017-11-19T01:46:15.350Z,4.50
2017-11-19T01:48:43.490Z,4.50
2017-11-19T01:51:11.612Z,4.50
2017-11-19T01:53:39.761Z,4.50
2017-11-19T01:56:08.651Z,4.50
2017-11-19T01:58:36.797Z,4.40
2017-11-19T02:01:04.919Z,4.50
2017-11-19T02:03:33.840Z,4.50
2017-11-19T02:06:01.971Z,4.50
2017-11-19T02:08:30.878Z,4.50
2017-11-19T02:10:59.003Z,4.50
2017-11-19T02:13:27.130Z,4.50
2017-11-19T02:15:55.281Z,4.50
2017-11-19T02:18:23.403Z,4.50
2017-11-19T02:20:51.555Z,4.50
2017-11-19T02:23:19.682Z,4.50
2017-11-19T02:25:47.818Z,4.40
2017-11-19T02:28:15.954Z,4.40
2017-11-19T02:30:44.107Z,4.40
2017-11-19T02:33:12.236Z,4.40
2017-11-19T02:35:40.382Z,4.40
2017-11-19T02:38:08.512Z,4.40
2017-11-19T02:40:36.658Z,4.40
2017-11-19T02:43:04.779Z,4.50
2017-11-19T02:45:32.928Z,4.50
2017-11-19T02:48:01.055Z,4.40
2017-11-19T02:50:29.202Z,4.40
2017-11-19T02:52:57.323Z,4.40
2017-11-19T02:55:25.462Z,4.40
2017-11-19T02:57:53.590Z,4.40
2017-11-19T03:00:21.735Z,4.30
2017-11-19T03:02:49.858Z,4.30
2017-11-19T03:05:18.015Z,4.30
2017-11-19T03:07:46.130Z,4.30
2017-11-19T03:10:14.284Z,4.20
2017-11-19T03:12:42.398Z,4.20
2017-11-19T03:15:10.552Z,4.20
2017-11-19T03:17:38.671Z,4.10
2017-11-19T03:20:06.823Z,4.10
2017-11-19T03:22:34.943Z,4.10
2017-11-19T03:25:03.095Z,4.20
2017-11-19T03:27:31.215Z,4.20
2017-11-19T03:29:59.336Z,4.20
2017-11-19T03:32:27.481Z,4.20
2017-11-19T03:34:55.607Z,4.20
2017-11-19T03:37:23.746Z,4.20
2017-11-19T03:39:51.871Z,4.20
2017-11-19T03:42:20.019Z,4.20
2017-11-19T03:44:48.142Z,4.20
2017-11-19T03:47:16.296Z,4.20
2017-11-19T03:49:45.181Z,4.20
2017-11-19T03:52:13.330Z,4.20
2017-11-19T03:54:41.451Z,4.20
2017-11-19T03:57:09.595Z,4.20
2017-11-19T03:59:37.725Z,4.20
2017-11-19T04:02:05.870Z,4.20
2017-11-19T04:04:33.997Z,4.20
2017-11-19T04:07:02.931Z,4.10
2017-11-19T04:09:31.047Z,4.10
2017-11-19T04:11:59.192Z,4.10
2017-11-19T04:14:27.323Z,4.10
2017-11-19T04:16:55.466Z,4.00
2017-11-19T04:19:23.595Z,4.00
2017-11-19T04:21:51.748Z,4.00
2017-11-19T04:24:20.657Z,4.00
2017-11-19T04:26:48.773Z,4.00
2017-11-19T04:29:16.929Z,4.00
2017-11-19T04:31:45.060Z,4.00
2017-11-19T04:34:13.203Z,4.00
2017-11-19T04:36:41.327Z,4.10
2017-11-19T04:39:09.476Z,4.10
2017-11-19T04:41:38.366Z,4.10
2017-11-19T04:44:06.518Z,4.10
2017-11-19T04:46:34.644Z,4.20
2017-11-19T04:49:02.792Z,4.20
2017-11-19T04:51:30.910Z,4.30
2017-11-19T04:53:59.066Z,4.30
2017-11-19T04:56:27.196Z,4.30
2017-11-19T04:58:55.343Z,4.30
2017-11-19T05:01:23.462Z,4.30
2017-11-19T05:03:51.608Z,4.30
2017-11-19T05:06:19.722Z,4.30
2017-11-19T05:08:47.843Z,4.40
2017-11-19T05:11:15.985Z,4.40
2017-11-19T05:13:44.107Z,4.40
2017-11-19T05:16:12.251Z,4.40
2017-11-19T05:18:40.374Z,4.40
2017-11-19T05:21:08.522Z,4.50
2017-11-19T05:23:36.648Z,4.50
2017-11-19T05:26:04.803Z,4.50
2017-11-19T05:28:32.927Z,4.50
2017-11-19T05:31:01.083Z,4.50
2017-11-19T05:33:29.206Z,4.50
2017-11-19T05:35:57.359Z,4.50
2017-11-19T05:38:25.475Z,4.50
2017-11-19T05:40:53.624Z,4.50
2017-11-19T05:43:21.747Z,4.50
2017-11-19T05:45:49.895Z,4.50
2017-11-19T05:48:18.024Z,4.40
2017-11-19T05:50:46.170Z,4.40
2017-11-19T05:53:14.286Z,4.40
2017-11-19T05:55:42.435Z,4.40
2017-11-19T05:58:10.559Z,4.40
2017-11-19T06:00:38.708Z,4.40
2017-11-19T06:03:06.848Z,4.40
2017-11-19T06:05:35.005Z,4.40
2017-11-19T06:08:03.123Z,4.30
2017-11-19T06:10:32.011Z,4.30
2017-11-19T06:13:00.162Z,4.30
2017-11-19T06:15:28.290Z,4.20
2017-11-19T06:17:56.442Z,4.30
2017-11-19T06:20:24.565Z,4.30
2017-11-19T06:22:53.487Z,4.40
2017-11-19T06:25:21.626Z,4.40
2017-11-19T06:27:49.765Z,4.40
2017-11-19T06:30:17.886Z,4.40
2017-11-19T06:32:46.030Z,4.50
2017-11-19T06:35:14.158Z,4.50
2017-11-19T06:37:43.070Z,4.50
2017-11-19T06:40:11.221Z,4.50
2017-11-19T06:42:39.368Z,4.50
2017-11-19T06:45:07.504Z,4.50
2017-11-19T06:47:35.659Z,4.40
2017-11-19T06:50:03.819Z,4.50
2017-11-19T06:52:31.971Z,4.50
2017-11-19T06:55:00.095Z,4.50
2017-11-19T06:57:28.255Z,4.60
2017-11-19T06:59:56.379Z,4.60
2017-11-19T07:02:24.523Z,4.60
2017-11-19T07:04:52.645Z,4.60
2017-11-19T07:07:20.802Z,4.70
2017-11-19T07:09:48.935Z,4.70
2017-11-19T07:12:17.092Z,4.70
2017-11-19T07:14:45.221Z,4.80
2017-11-19T07:17:13.375Z,4.80
2017-11-19T07:19:41.505Z,4.80
2017-11-19T07:22:10.427Z,4.90
2017-11-19T07:24:38.551Z,4.80
2017-11-19T07:27:06.704Z,4.90
2017-11-19T07:29:34.837Z,4.90
2017-11-19T07:32:02.962Z,4.90
2017-11-19T07:34:31.118Z,4.90
2017-11-19T07:36:59.251Z,5.00
2017-11-19T07:39:27.400Z,5.00
2017-11-19T07:41:55.539Z,5.00
2017-11-19T07:44:23.686Z,5.10
2017-11-19T07:46:51.818Z,5.10
2017-11-19T07:49:20.729Z,5.10
2017-11-19T07:51:48.850Z,5.10
2017-11-19T07:54:17.003Z,5.20
2017-11-19T07:56:45.127Z,5.20
2017-11-19T07:59:13.278Z,5.20
2017-11-19T08:01:41.394Z,5.20
2017-11-19T08:04:09.539Z,5.30
2017-11-19T08:06:38.430Z,5.30
2017-11-19T08:09:06.594Z,5.30
2017-11-19T08:11:34.720Z,5.30
2017-11-19T08:14:02.863Z,5.30
2017-11-19T08:16:31.781Z,5.40
2017-11-19T08:18:59.928Z,5.40
2017-11-19T08:21:28.045Z,5.50
2017-11-19T08:23:56.199Z,5.50
2017-11-19T08:26:24.343Z,5.50
2017-11-19T08:28:53.229Z,5.50
2017-11-19T08:31:21.384Z,5.50
2017-11-19T08:33:49.502Z,5.60
2017-11-19T08:36:17.645Z,5.50
2017-11-19T08:38:46.536Z,5.50
2017-11-19T08:41:14.682Z,5.50
2017-11-19T08:43:42.836Z,5.50
2017-11-19T08:46:10.979Z,5.50
2017-11-19T08:48:39.138Z,5.60
2017-11-19T08:51:08.021Z,5.70
2017-11-19T08:53:36.173Z,5.60
2017-11-19T08:56:04.286Z,5.70
2017-11-19T08:58:33.210Z,5.80
2017-11-19T09:01:01.331Z,5.80
2017-11-19T09:03:29.491Z,5.80
2017-11-19T09:05:57.618Z,5.90
2017-11-19T09:08:25.763Z,5.90
2017-11-19T09:10:53.893Z,6.00
2017-11-19T09:13:22.121Z,6.00
2017-11-19T09:15:50.245Z,6.10
2017-11-19T09:18:18.854Z,6.20
2017-11-19T09:20:47.120Z,6.20
2017-11-19T09:23:16.055Z,6.40
2017-11-19T09:25:44.226Z,6.40
2017-11-19T09:28:12.498Z,6.60
2017-11-19T09:30:41.093Z,6.70
2017-11-19T09:33:09.242Z,6.90
2017-11-19T09:35:37.364Z,7.10
2017-11-19T09:38:05.511Z,7.30
2017-11-19T09:40:33.621Z,7.40
2017-11-19T09:43:01.766Z,7.40
2017-11-19T09:45:29.896Z,7.50
2017-11-19T09:47:58.049Z,7.60
2017-11-19T09:50:26.168Z,7.70
2017-11-19T09:52:54.319Z,7.90
2017-11-19T09:55:22.451Z,8.00
2017-11-19T09:57:51.808Z,8.10
2017-11-19T10:00:19.922Z,8.10
2017-11-19T10:02:49.091Z,8.00
2017-11-19T10:05:17.216Z,8.00
2017-11-19T10:07:45.389Z,8.10
2017-11-19T10:10:13.513Z,8.30
2017-11-19T10:12:41.634Z,8.40
2017-11-19T10:15:09.786Z,8.60
2017-11-19T10:17:38.881Z,8.60
2017-11-19T10:20:07.034Z,8.60
2017-11-19T10:22:35.155Z,8.70
2017-11-19T10:25:03.327Z,8.90
2017-11-19T10:27:31.446Z,9.00
2017-11-19T10:29:59.610Z,9.10
2017-11-19T10:32:27.737Z,9.10
2017-11-19T10:34:55.881Z,9.00
2017-11-19T10:37:24.330Z,8.90
2017-11-19T10:39:52.500Z,8.80
2017-11-19T10:42:21.413Z,8.60
2017-11-19T10:44:49.554Z,8.50
2017-11-19T10:47:18.455Z,8.30
2017-11-19T10:49:46.612Z,8.30
2017-11-19T10:52:14.734Z,8.20
2017-11-19T10:54:42.893Z,8.10
2017-11-19T10:57:11.014Z,8.10
2017-11-19T10:59:39.174Z,8.00
2017-11-19T11:02:07.304Z,8.00
2017-11-19T11:04:36.250Z,7.80
2017-11-19T11:07:04.384Z,7.80
2017-11-19T11:09:32.537Z,7.60
2017-11-19T11:12:00.670Z,7.40
2017-11-19T11:14:28.912Z,7.30
2017-11-19T11:16:57.058Z,7.20
2017-11-19T11:19:25.255Z,7.10
2017-11-19T11:21:53.408Z,7.00
2017-11-19T11:24:22.299Z,6.80
2017-11-19T11:26:50.440Z,6.70
2017-11-19T11:29:18.560Z,6.70
2017-11-19T11:31:46.707Z,6.60
2017-11-19T11:34:14.846Z,6.50
2017-11-19T11:36:43.001Z,6.50
2017-11-19T11:39:11.127Z,6.40
2017-11-19T11:41:40.047Z,6.50
2017-11-19T11:44:08.179Z,6.50
2017-11-19T11:46:36.331Z,6.70
2017-11-19T11:49:04.447Z,6.90
2017-11-19T11:51:32.601Z,7.10
2017-11-19T11:54:00.732Z,7.20
2017-11-19T11:56:28.873Z,7.40
2017-11-19T11:58:56.994Z,7.60
2017-11-19T12:01:25.148Z,7.70
2017-11-19T12:03:53.339Z,7.80
2017-11-19T12:06:21.499Z,7.80
2017-11-19T12:08:49.618Z,7.70
2017-11-19T12:11:17.770Z,7.70
2017-11-19T12:13:45.895Z,7.70
2017-11-19T12:16:14.074Z,7.60
2017-11-19T12:18:42.190Z,7.60
2017-11-19T12:21:10.338Z,7.50
2017-11-19T12:23:38.467Z,7.40
2017-11-19T12:26:07.169Z,7.30
2017-11-19T12:28:35.290Z,7.20
2017-11-19T12:31:03.447Z,7.10
2017-11-19T12:33:31.583Z,7.00
2017-11-19T12:35:59.703Z,6.80
2017-11-19T12:38:27.862Z,6.80
2017-11-19T12:40:55.984Z,6.80
2017-11-19T12:43:24.898Z,7.00
2017-11-19T12:45:53.013Z,6.90
2017-11-19T12:48:21.169Z,7.10
2017-11-19T12:50:49.292Z,7.20
2017-11-19T12:53:17.440Z,7.40
2017-11-19T12:55:45.569Z,7.50
2017-11-19T12:58:13.738Z,7.50
2017-11-19T13:00:41.864Z,7.50
2017-11-19T13:03:10.019Z,7.60
2017-11-19T13:05:38.150Z,7.60
2017-11-19T13:08:06.318Z,7.60
2017-11-19T13:10:35.210Z,7.70
2017-11-19T13:13:03.366Z,7.70
2017-11-19T13:15:32.269Z,7.80
2017-11-19T13:18:00.424Z,7.80
2017-11-19T13:20:28.558Z,7.90
2017-11-19T13:22:56.720Z,7.90
2017-11-19T13:25:24.845Z,8.00
2017-11-19T13:27:52.998Z,7.90
2017-11-19T13:30:21.118Z,7.80
2017-11-19T13:32:49.287Z,7.80
2017-11-19T13:35:17.422Z,7.60
2017-11-19T13:37:45.591Z,7.40
2017-11-19T13:40:13.717Z,7.30
2017-11-19T13:42:41.876Z,7.20
2017-11-19T13:45:09.995Z,7.10
2017-11-19T13:47:38.170Z,7.00
2017-11-19T13:50:06.306Z,6.90
2017-11-19T13:52:34.440Z,6.90
2017-11-19T13:55:02.587Z,6.70
2017-11-19T13:57:30.721Z,6.70
2017-11-19T13:59:58.954Z,6.60
2017-11-19T14:02:27.075Z,6.50
2017-11-19T14:04:55.228Z,6.40
2017-11-19T14:07:23.346Z,6.40
2017-11-19T14:09:51.503Z,6.30
2017-11-19T14:12:19.621Z,6.20
2017-11-19T14:14:47.774Z,6.20
2017-11-19T14:17:15.908Z,6.20
2017-11-19T14:19:44.070Z,6.10
2017-11-19T14:22:12.959Z,6.10
2017-11-19T14:24:41.110Z,6.10
2017-11-19T14:27:09.237Z,6.10
2017-11-19T14:29:37.374Z,6.10
2017-11-19T14:32:05.486Z,6.00
2017-11-19T14:34:33.634Z,6.00
2017-11-19T14:37:01.755Z,5.90
2017-11-19T14:39:29.905Z,5.90
2017-11-19T14:41:58.031Z,6.00
2017-11-19T14:44:26.184Z,6.00
2017-11-19T14:46:54.303Z,6.00
2017-11-19T14:49:22.464Z,6.00
2017-11-19T14:51:51.346Z,6.10
2017-11-19T14:54:19.500Z,6.10
2017-11-19T14:56:47.616Z,6.10
2017-11-19T14:59:15.770Z,6.10
2017-11-19T15:01:43.901Z,6.10
2017-11-19T15:04:12.282Z,6.10
2017-11-19T15:06:40.784Z,6.10
2017-11-19T15:09:08.943Z,6.00
2017-11-19T15:11:37.102Z,6.00
2017-11-19T15:14:05.232Z,6.00
2017-11-19T15:16:33.404Z,5.90
2017-11-19T15:19:02.323Z,5.90
2017-11-19T15:21:30.473Z,5.90
2017-11-19T15:23:59.362Z,5.80
2017-11-19T15:26:27.514Z,5.90
2017-11-19T15:28:55.638Z,5.90
2017-11-19T15:31:23.791Z,5.80
2017-11-19T15:33:52.859Z,5.80
2017-11-19T15:36:21.032Z,5.80
2017-11-19T15:38:49.155Z,5.70
2017-11-19T15:41:17.302Z,5.70
2017-11-19T15:43:45.427Z,5.60
2017-11-19T15:46:13.584Z,5.60
2017-11-19T15:48:41.710Z,5.60
2017-11-19T15:51:10.622Z,5.60
2017-11-19T15:53:38.751Z,5.50
2017-11-19T15:56:06.899Z,5.60
2017-11-19T15:58:35.018Z,5.50
2017-11-19T16:01:03.169Z,5.50
2017-11-19T16:03:31.310Z,5.50
2017-11-19T16:05:59.457Z,5.40
2017-11-19T16:08:27.590Z,5.40
2017-11-19T16:10:55.739Z,5.30
2017-11-19T16:13:23.853Z,5.30
2017-11-19T16:15:51.998Z,5.30
2017-11-19T16:18:20.118Z,5.30
2017-11-19T16:20:49.030Z,5.30
2017-11-19T16:23:17.147Z,5.20
2017-11-19T16:25:45.272Z,5.20
2017-11-19T16:28:13.414Z,5.20
2017-11-19T16:30:41.531Z,5.20
2017-11-19T16:33:09.680Z,5.20
2017-11-19T16:35:37.802Z,5.20
2017-11-19T16:38:05.958Z,5.20
2017-11-19T16:40:34.077Z,5.20
2017-11-19T16:43:02.234Z,5.20
2017-11-19T16:45:30.362Z,5.10
2017-11-19T16:47:58.508Z,5.10
2017-11-19T16:50:27.395Z,5.10
2017-11-19T16:52:55.546Z,5.10
2017-11-19T16:55:23.679Z,5.10
2017-11-19T16:57:51.869Z,5.10
2017-11-19T17:00:19.994Z,5.00
2017-11-19T17:02:48.142Z,5.00
2017-11-19T17:05:16.262Z,5.00
2017-11-19T17:07:44.409Z,5.00
2017-11-19T17:10:12.531Z,5.00
2017-11-19T17:12:40.682Z,5.00
2017-11-19T17:15:08.806Z,5.00
2017-11-19T17:17:36.956Z,5.00
2017-11-19T17:20:05.083Z,5.00
2017-11-19T17:22:33.308Z,5.10
2017-11-19T17:25:01.427Z,5.10
2017-11-19T17:27:30.350Z,5.00
2017-11-19T17:29:58.483Z,5.00
2017-11-19T17:32:27.402Z,5.00
2017-11-19T17:35:00.328Z,5.00
2017-11-19T17:37:28.520Z,5.00
2017-11-19T17:39:56.663Z,5.00
2017-11-19T17:42:24.819Z,5.00
2017-11-19T17:44:52.981Z,4.90
2017-11-19T17:47:21.150Z,4.90
2017-11-19T17:49:49.271Z,4.80
2017-11-19T17:52:17.403Z,4.80
2017-11-19T17:54:45.570Z,4.70
2017-11-19T17:57:13.842Z,4.70
2017-11-19T17:59:42.132Z,4.60
2017-11-19T18:02:10.271Z,4.60
2017-11-19T18:04:39.258Z,4.50
2017-11-19T18:07:07.554Z,4.50
2017-11-19T18:09:35.925Z,4.50
2017-11-19T18:12:05.048Z,4.40
2017-11-19T18:14:33.221Z,4.40
2017-11-19T18:17:01.355Z,4.30
2017-11-19T18:19:29.502Z,4.30
2017-11-19T18:21:57.627Z,4.30
2017-11-19T18:24:25.812Z,4.40
2017-11-19T18:26:53.939Z,4.40
2017-11-19T18:29:22.117Z,4.50
2017-11-19T18:31:50.286Z,4.50
2017-11-19T18:34:18.434Z,4.50
2017-11-19T18:36:46.652Z,4.50
2017-11-19T18:39:15.664Z,4.60
2017-11-19T18:41:43.797Z,4.60
2017-11-19T18:44:11.935Z,4.60
2017-11-19T18:46:40.100Z,4.60
2017-11-19T18:49:08.288Z,4.50
2017-11-19T18:51:36.447Z,4.50
2017-11-19T18:54:04.617Z,4.50
2017-11-19T18:56:32.806Z,4.40
2017-11-19T18:59:00.976Z,4.40
2017-11-19T19:01:29.187Z,4.40
2017-11-19T19:03:57.297Z,4.40
2017-11-19T19:06:25.876Z,4.40
2017-11-19T19:08:54.788Z,4.50
2017-11-19T19:11:22.911Z,4.50
2017-11-19T19:13:51.121Z,4.50
2017-11-19T19:16:19.259Z,4.50
2017-11-19T19:18:47.434Z,4.50
2017-11-19T19:21:15.579Z,4.50
2017-11-19T19:23:43.738Z,4.50
2017-11-19T19:26:11.872Z,4.50
2017-11-19T19:28:40.052Z,4.50
2017-11-19T19:31:09.560Z,4.50
2017-11-19T19:33:37.731Z,4.50
2017-11-19T19:36:06.614Z,4.50
2017-11-19T19:38:34.759Z,4.50
2017-11-19T19:41:02.886Z,4.50
2017-11-19T19:43:31.071Z,4.50
2017-11-19T19:45:59.209Z,4.50
2017-11-19T19:48:27.358Z,4.50
2017-11-19T19:50:55.471Z,4.50
2017-11-19T19:53:23.617Z,4.50
2017-11-19T19:55:51.740Z,4.50
2017-11-19T19:58:19.899Z,4.50
2017-11-19T20:00:48.038Z,4.50
2017-11-19T20:03:16.193Z,4.40
2017-11-19T20:05:44.320Z,4.40
2017-11-19T20:08:12.489Z,4.40
2017-11-19T20:10:40.616Z,4.40
2017-11-19T20:13:08.763Z,4.40
2017-11-19T20:15:36.940Z,4.30
2017-11-19T20:18:05.079Z,4.30
2017-11-19T20:20:33.243Z,4.20
2017-11-19T20:23:02.154Z,4.00
2017-11-19T20:25:30.309Z,4.00
2017-11-19T20:27:59.195Z,3.90
2017-11-19T20:30:27.968Z,3.80
2017-11-19T20:32:56.098Z,3.80
2017-11-19T20:35:24.258Z,3.80
2017-11-19T20:37:52.412Z,3.80
2017-11-19T20:40:20.536Z,3.70
2017-11-19T20:42:48.695Z,3.70
2017-11-19T20:45:16.835Z,3.70
2017-11-19T20:47:45.079Z,3.60
2017-11-19T20:50:13.205Z,3.60
2017-11-19T20:52:41.368Z,3.50
2017-11-19T20:55:09.508Z,3.50
2017-11-19T20:57:37.654Z,3.50
2017-11-19T21:00:05.786Z,3.50
2017-11-19T21:02:33.955Z,3.40
2017-11-19T21:05:02.094Z,3.40
2017-11-19T21:07:30.259Z,3.40
2017-11-19T21:09:58.380Z,3.30
2017-11-19T21:12:26.532Z,3.30
2017-11-19T21:14:54.686Z,3.30
2017-11-19T21:17:22.852Z,3.30
2017-11-19T21:19:51.079Z,3.20
2017-11-19T21:22:19.235Z,3.30
2017-11-19T21:24:47.359Z,3.20
2017-11-19T21:27:15.528Z,3.20
2017-11-19T21:29:43.684Z,3.20
2017-11-19T21:32:11.856Z,3.10
2017-11-19T21:34:39.992Z,3.10
2017-11-19T21:37:08.921Z,3.20
2017-11-19T21:39:37.051Z,3.10
2017-11-19T21:42:05.968Z,3.10
2017-11-19T21:44:34.162Z,3.10
2017-11-19T21:47:02.327Z,3.10
2017-11-19T21:49:30.445Z,3.10
2017-11-19T21:51:58.603Z,3.10
2017-11-19T21:54:26.730Z,3.10
2017-11-19T21:56:54.861Z,3.00
2017-11-19T21:59:23.036Z,3.00
2017-11-19T22:01:51.178Z,3.00
2017-11-19T22:04:20.254Z,3.00
2017-11-19T22:06:48.396Z,3.00
2017-11-19T22:09:16.546Z,2.90
2017-11-19T22:11:44.762Z,2.90
2017-11-19T22:14:13.707Z,2.90
2017-11-19T22:16:41.831Z,2.90
2017-11-19T22:19:09.981Z,2.90
2017-11-19T22:21:38.113Z,2.90
2017-11-19T22:24:06.266Z,2.90
2017-11-19T22:26:34.387Z,2.90
2017-11-19T22:29:02.538Z,2.90
2017-11-19T22:31:30.659Z,2.90
2017-11-19T22:33:58.802Z,2.90
2017-11-19T22:36:26.918Z,2.80
2017-11-19T22:38:55.065Z,2.80
2017-11-19T22:41:23.961Z,2.80
2017-11-19T22:43:52.112Z,2.80
2017-11-19T22:46:20.231Z,2.70
2017-11-19T22:48:48.378Z,2.70
2017-11-19T22:51:16.494Z,2.70
2017-11-19T22:53:44.633Z,2.70
2017-11-19T22:56:12.753Z,2.70
2017-11-19T22:58:40.902Z,2.70
2017-11-19T23:01:09.021Z,2.60
2017-11-19T23:03:37.170Z,2.60
2017-11-19T23:06:05.290Z,2.60
2017-11-19T23:08:33.435Z,2.60
2017-11-19T23:11:01.558Z,2.60
2017-11-19T23:13:29.687Z,2.50
2017-11-19T23:15:57.839Z,2.50
2017-11-19T23:18:25.973Z,2.50
2017-11-19T23:20:54.126Z,2.50
2017-11-19T23:23:23.007Z,2.40
2017-11-19T23:25:51.173Z,2.40
2017-11-19T23:28:19.301Z,2.40
2017-11-19T23:30:47.459Z,2.40
2017-11-19T23:33:15.583Z,2.40
2017-11-19T23:35:43.744Z,2.40
2017-11-19T23:38:11.872Z,2.30
2017-11-19T23:40:40.023Z,2.30
2017-11-19T23:43:08.147Z,2.20
2017-11-19T23:45:36.293Z,2.20
2017-11-19T23:48:04.419Z,2.20
2017-11-19T23:50:32.576Z,2.20
2017-11-19T23:53:00.701Z,2.20
2017-11-19T23:55:28.848Z,2.20
2017-11-19T23:57:56.977Z,2.20
